KCNO

Chino Airport

Chino, California, USA
METAR KCNO 170653Z AUTO 22007KT 5SM HZ CLR 09/06 A2981 RMK AO2 SLP092 T00940061
Observed Flight Rules
Dec-17 @ 06:53 UTC (an hour ago) Marginal Visual Flight Rules
Wind Visibility Clouds Conditions
220° at 7 knots 5 miles
  • Clear skies
  • Haze
Temperatures Readings
Current 9°C / 48°F
Dewpoint 6°C / 43°F
Humidity 82%
Altimeter 29.81" Hg
Pressure 1009.2 hPa
Elevation 207
METAR KCNO 170653Z AUTO 22007KT 5SM HZ CLR 09/06 A2981 RMK AO2 SLP092 T00940061
Observed Flight Rules
Dec-17 @ 06:53 UTC
(an hour ago)
MVFR
Wind Visibility
220° at 7 knots 5 miles
Clouds
  • Clear skies
Conditions
  • Haze
Temperature Dewpoint
9°C / 48°F 6°C / 43°F
Humidity Altimeter Pressure
82% 29.81" Hg 1009.2 hPa